Time;durP1;ratioP1;P1;durP2;ratioP2;P2;SDS_P1;SDS_P2;PMS_P1;PMS_P2;Temp;Humidity;BMP_temperature;BMP_pressure;BME280_temperature;BME280_humidity;BME280_pressure;Samples;Min_cycle;Max_cycle;Signal;HPM_P1;HPM_P2
2024/01/24 00:01:42;;;;;;;7.95;3.60;;;;;;;;;;4899181;29;20040;-72
2024/01/24 00:04:08;;;;;;;7.88;3.20;;;;;;;;;;4914848;29;20519;-70
2024/01/24 00:06:34;;;;;;;8.93;2.83;;;;;;;;;;4903715;29;20123;-70
2024/01/24 00:09:00;;;;;;;5.20;2.88;;;;;;;;;;4895782;29;20044;-71
2024/01/24 00:11:26;;;;;;;9.20;2.85;;;;;;;;;;4928158;29;20066;-71
2024/01/24 00:13:52;;;;;;;8.45;3.28;;;;;;;;;;4919912;29;20545;-71
2024/01/24 00:16:18;;;;;;;7.53;2.90;;;;;;;;;;4933672;29;20049;-71
2024/01/24 00:18:44;;;;;;;10.13;2.65;;;;;;;;;;4921332;29;20419;-72
2024/01/24 00:21:10;;;;;;;8.13;3.47;;;;;;;;;;4888920;29;20040;-71
2024/01/24 00:23:36;;;;;;;12.10;3.25;;;;;;;;;;4933208;29;20461;-71
2024/01/24 00:26:02;;;;;;;8.57;2.75;;;;;;;;;;4937552;29;20070;-71
2024/01/24 00:28:29;;;;;;;6.35;2.88;;;;;;;;;;4895839;29;20044;-71
2024/01/24 00:30:55;;;;;;;10.27;3.05;;;;;;;;;;4908455;29;20070;-71
2024/01/24 00:33:21;;;;;;;11.55;2.92;;;;;;;;;;4915153;29;20063;-71
2024/01/24 00:35:47;;;;;;;9.98;3.20;;;;;;;;;;4933685;29;20089;-71
2024/01/24 00:38:13;;;;;;;7.68;3.03;;;;;;;;;;4933127;29;20098;-71
2024/01/24 00:40:39;;;;;;;7.88;2.85;;;;;;;;;;4913572;29;20486;-71
2024/01/24 00:43:05;;;;;;;8.75;2.75;;;;;;;;;;4900207;29;20311;-71
2024/01/24 00:45:31;;;;;;;6.60;2.78;;;;;;;;;;4897423;29;20044;-71
2024/01/24 00:47:57;;;;;;;10.27;2.72;;;;;;;;;;4914312;29;20071;-72
2024/01/24 00:50:23;;;;;;;5.63;2.60;;;;;;;;;;4913598;29;20541;-71
2024/01/24 00:52:52;;;;;;;9.70;2.67;;;;;;;;;;4914165;29;20039;-71
2024/01/24 00:55:18;;;;;;;6.00;2.40;;;;;;;;;;4898516;29;20058;-71
2024/01/24 00:57:44;;;;;;;12.05;2.97;;;;;;;;;;4898205;29;20052;-71
2024/01/24 01:00:11;;;;;;;5.32;2.10;;;;;;;;;;4914058;29;20050;-71
2024/01/24 01:02:37;;;;;;;8.98;2.47;;;;;;;;;;4903814;29;20052;-71
2024/01/24 01:05:06;;;;;;;6.03;2.25;;;;;;;;;;4895026;29;20076;-71
2024/01/24 01:07:32;;;;;;;8.38;2.40;;;;;;;;;;4896094;29;20122;-72
2024/01/24 01:09:58;;;;;;;3.85;1.92;;;;;;;;;;4916970;29;20170;-72
2024/01/24 01:12:24;;;;;;;6.95;2.13;;;;;;;;;;4921586;29;20123;-72
2024/01/24 01:14:50;;;;;;;7.28;2.30;;;;;;;;;;4924518;29;20126;-72
2024/01/24 01:17:16;;;;;;;6.03;1.92;;;;;;;;;;4932161;29;20051;-72
2024/01/24 01:19:42;;;;;;;6.35;1.70;;;;;;;;;;4914612;29;20040;-72
2024/01/24 01:22:08;;;;;;;4.72;1.73;;;;;;;;;;4896244;29;20123;-72
2024/01/24 01:24:34;;;;;;;7.72;1.70;;;;;;;;;;4894649;29;20419;-72
2024/01/24 01:27:00;;;;;;;11.13;1.83;;;;;;;;;;4894928;29;20036;-72
2024/01/24 01:29:26;;;;;;;5.72;1.27;;;;;;;;;;4878550;29;20107;-72
2024/01/24 01:31:51;;;;;;;4.47;1.40;;;;;;;;;;4932488;29;20397;-72
2024/01/24 01:34:17;;;;;;;5.25;0.90;;;;;;;;;;4925743;29;20047;-72
2024/01/24 01:36:43;;;;;;;3.13;1.50;;;;;;;;;;4897600;29;20133;-72
2024/01/24 01:39:10;;;;;;;4.15;1.10;;;;;;;;;;4907287;29;20186;-72
2024/01/24 01:41:36;;;;;;;5.95;1.00;;;;;;;;;;4911369;29;20118;-72
2024/01/24 01:44:03;;;;;;;3.63;1.10;;;;;;;;;;4894195;29;20246;-72
2024/01/24 01:46:29;;;;;;;3.38;1.40;;;;;;;;;;4902036;29;20046;-72
2024/01/24 01:48:56;;;;;;;2.40;1.17;;;;;;;;;;4913171;29;20040;-72
2024/01/24 01:51:23;;;;;;;3.38;1.20;;;;;;;;;;4927047;29;20054;-72
2024/01/24 01:53:49;;;;;;;4.97;1.38;;;;;;;;;;4929890;29;20051;-72
2024/01/24 01:56:17;;;;;;;6.40;1.70;;;;;;;;;;4913233;29;20478;-72
2024/01/24 01:58:43;;;;;;;5.95;1.50;;;;;;;;;;4903563;29;20087;-72
2024/01/24 02:01:09;;;;;;;4.68;1.33;;;;;;;;;;4878176;29;20134;-72
2024/01/24 02:03:36;;;;;;;5.18;1.10;;;;;;;;;;4909980;29;20048;-72
2024/01/24 02:06:03;;;;;;;5.15;1.20;;;;;;;;;;4909543;29;20040;-72
2024/01/24 02:08:32;;;;;;;6.13;1.35;;;;;;;;;;4894090;29;20046;-72
2024/01/24 02:10:59;;;;;;;4.65;1.10;;;;;;;;;;4915157;29;20055;-72
2024/01/24 02:13:30;;;;;;;5.43;1.30;;;;;;;;;;4913044;29;20494;-72
2024/01/24 02:15:56;;;;;;;4.40;1.20;;;;;;;;;;4895053;29;20577;-72
2024/01/24 02:18:22;;;;;;;6.35;1.15;;;;;;;;;;4905608;29;20039;-72
2024/01/24 02:20:48;;;;;;;4.70;1.13;;;;;;;;;;4924202;29;20043;-72
2024/01/24 02:23:17;;;;;;;3.40;1.08;;;;;;;;;;4884419;29;20699;-72
2024/01/24 02:25:43;;;;;;;7.05;1.33;;;;;;;;;;4892891;29;20032;-72
2024/01/24 02:28:09;;;;;;;4.97;0.90;;;;;;;;;;4893534;29;20043;-72
2024/01/24 02:30:35;;;;;;;7.28;1.25;;;;;;;;;;4907849;29;20049;-72
2024/01/24 02:33:01;;;;;;;6.32;1.20;;;;;;;;;;4931553;29;20047;-72
2024/01/24 02:35:28;;;;;;;3.58;0.90;;;;;;;;;;4917450;29;20044;-72
2024/01/24 02:37:54;;;;;;;6.90;1.10;;;;;;;;;;4910189;29;20186;-72
2024/01/24 02:40:20;;;;;;;6.78;1.30;;;;;;;;;;4909013;29;20103;-72
2024/01/24 02:42:46;;;;;;;6.53;1.40;;;;;;;;;;4920917;29;20063;-72
2024/01/24 02:45:12;;;;;;;3.55;0.90;;;;;;;;;;4931691;29;20105;-72
2024/01/24 02:47:39;;;;;;;8.85;1.83;;;;;;;;;;4931091;29;20051;-72
2024/01/24 02:50:05;;;;;;;7.90;1.55;;;;;;;;;;4914301;29;20127;-72
2024/01/24 02:52:31;;;;;;;7.20;1.50;;;;;;;;;;4893125;29;20483;-72
2024/01/24 02:54:57;;;;;;;8.63;1.92;;;;;;;;;;4916515;29;20151;-72
2024/01/24 02:57:23;;;;;;;9.32;1.95;;;;;;;;;;4931277;29;20173;-72
2024/01/24 02:59:49;;;;;;;17.52;2.75;;;;;;;;;;4915170;29;20548;-72
2024/01/24 03:02:15;;;;;;;10.77;1.77;;;;;;;;;;4907910;29;20055;-73
2024/01/24 03:04:41;;;;;;;9.75;2.45;;;;;;;;;;4893715;29;20044;-73
2024/01/24 03:07:07;;;;;;;11.38;2.38;;;;;;;;;;4903630;29;20036;-72
2024/01/24 03:09:33;;;;;;;11.55;2.40;;;;;;;;;;4912282;29;20561;-72
2024/01/24 03:11:59;;;;;;;12.43;2.55;;;;;;;;;;4919494;29;20039;-73
2024/01/24 03:14:25;;;;;;;9.82;2.03;;;;;;;;;;4912773;29;20048;-72
2024/01/24 03:16:51;;;;;;;20.35;2.67;;;;;;;;;;4912787;29;20074;-71
2024/01/24 03:19:17;;;;;;;14.43;2.60;;;;;;;;;;4900951;29;20036;-71
2024/01/24 03:21:43;;;;;;;14.93;3.03;;;;;;;;;;4909883;29;20100;-71
2024/01/24 03:24:09;;;;;;;16.17;3.00;;;;;;;;;;4929000;29;20066;-71
2024/01/24 03:26:35;;;;;;;12.90;2.45;;;;;;;;;;4914558;29;20036;-71
2024/01/24 03:29:02;;;;;;;19.55;2.70;;;;;;;;;;4893453;29;20048;-71
2024/01/24 03:31:28;;;;;;;16.88;3.00;;;;;;;;;;4905084;29;20147;-72
2024/01/24 03:33:54;;;;;;;20.73;2.88;;;;;;;;;;4912326;29;20130;-72
2024/01/24 03:36:20;;;;;;;16.58;2.70;;;;;;;;;;4912970;29;20394;-72
2024/01/24 03:38:46;;;;;;;16.85;3.03;;;;;;;;;;4912352;29;20134;-72
2024/01/24 03:41:12;;;;;;;16.65;2.65;;;;;;;;;;4914993;29;20142;-72
2024/01/24 03:43:41;;;;;;;14.68;2.60;;;;;;;;;;4901490;29;20056;-72
2024/01/24 03:46:07;;;;;;;18.90;2.95;;;;;;;;;;4899723;29;20048;-72
2024/01/24 03:48:33;;;;;;;19.48;2.70;;;;;;;;;;4932346;29;20401;-72
2024/01/24 03:50:59;;;;;;;18.10;3.28;;;;;;;;;;4891339;29;20040;-72
2024/01/24 03:53:25;;;;;;;24.65;3.80;;;;;;;;;;4895945;29;20051;-72
2024/01/24 03:55:51;;;;;;;20.10;3.40;;;;;;;;;;4911107;29;20047;-72
2024/01/24 03:58:18;;;;;;;15.15;3.38;;;;;;;;;;4917441;29;20502;-72
2024/01/24 04:00:44;;;;;;;22.38;3.22;;;;;;;;;;4951460;29;20047;-72
2024/01/24 04:03:10;;;;;;;16.75;3.47;;;;;;;;;;4924283;29;20051;-72
2024/01/24 04:05:36;;;;;;;26.90;4.25;;;;;;;;;;4915240;29;20043;-73
2024/01/24 04:08:02;;;;;;;20.75;4.95;;;;;;;;;;4898997;29;20815;-72
2024/01/24 04:10:28;;;;;;;26.27;4.25;;;;;;;;;;4902654;29;20035;-72
2024/01/24 04:12:54;;;;;;;17.58;2.95;;;;;;;;;;4918868;29;20053;-72
2024/01/24 04:15:21;;;;;;;24.35;4.18;;;;;;;;;;4904581;29;20055;-73
2024/01/24 04:17:47;;;;;;;24.63;4.13;;;;;;;;;;4895770;29;20056;-73
2024/01/24 04:20:13;;;;;;;22.20;3.92;;;;;;;;;;4910447;29;20051;-73
2024/01/24 04:22:39;;;;;;;17.60;3.28;;;;;;;;;;4879357;29;20047;-73
2024/01/24 04:25:06;;;;;;;29.73;5.07;;;;;;;;;;4896178;29;20536;-73
2024/01/24 04:27:32;;;;;;;27.50;4.60;;;;;;;;;;4918807;29;20398;-73
2024/01/24 04:29:58;;;;;;;21.77;3.90;;;;;;;;;;4933376;29;20537;-73
2024/01/24 04:32:24;;;;;;;21.13;4.55;;;;;;;;;;4915107;29;20055;-73
2024/01/24 04:34:50;;;;;;;24.17;4.15;;;;;;;;;;4914716;29;20050;-73
2024/01/24 04:37:16;;;;;;;25.63;4.57;;;;;;;;;;4914550;29;20053;-73
2024/01/24 04:39:42;;;;;;;26.02;4.93;;;;;;;;;;4912658;29;20040;-73
2024/01/24 04:42:08;;;;;;;19.48;3.70;;;;;;;;;;4913796;29;20043;-73
2024/01/24 04:44:34;;;;;;;26.35;3.97;;;;;;;;;;4933547;29;20126;-73
2024/01/24 04:47:01;;;;;;;26.05;3.90;;;;;;;;;;4926633;29;20044;-73
2024/01/24 04:49:27;;;;;;;21.55;5.25;;;;;;;;;;4913253;29;20066;-73
2024/01/24 04:51:53;;;;;;;23.50;4.28;;;;;;;;;;4914208;29;20454;-73
2024/01/24 04:54:19;;;;;;;30.67;5.65;;;;;;;;;;4912206;29;20051;-73
2024/01/24 04:56:45;;;;;;;21.60;4.28;;;;;;;;;;4879968;29;20040;-71
2024/01/24 04:59:15;;;;;;;28.90;4.22;;;;;;;;;;4902255;29;20044;-72
2024/01/24 05:01:41;;;;;;;28.13;4.32;;;;;;;;;;4914623;29;20491;-72
2024/01/24 05:04:07;;;;;;;30.02;4.30;;;;;;;;;;4928704;29;20054;-72
2024/01/24 05:06:33;;;;;;;34.30;5.28;;;;;;;;;;4930542;29;20043;-72
2024/01/24 05:08:59;;;;;;;26.35;4.60;;;;;;;;;;4898417;29;20089;-71
2024/01/24 05:11:25;;;;;;;32.17;5.53;;;;;;;;;;4904080;29;20099;-72
2024/01/24 05:13:51;;;;;;;35.85;6.15;;;;;;;;;;4913562;29;20079;-72
2024/01/24 05:16:17;;;;;;;25.05;5.57;;;;;;;;;;4897944;29;20083;-72
2024/01/24 05:18:43;;;;;;;29.17;5.30;;;;;;;;;;4902034;29;20083;-72
2024/01/24 05:21:09;;;;;;;31.90;5.43;;;;;;;;;;4922854;29;20047;-72
2024/01/24 05:23:34;;;;;;;27.58;5.25;;;;;;;;;;4923328;29;20414;-72
2024/01/24 05:26:01;;;;;;;32.67;5.13;;;;;;;;;;4926114;29;20475;-72
2024/01/24 05:28:27;;;;;;;25.15;4.85;;;;;;;;;;4881276;29;20095;-72
2024/01/24 05:30:53;;;;;;;32.38;5.00;;;;;;;;;;4898774;29;20119;-72
2024/01/24 05:33:19;;;;;;;35.13;5.65;;;;;;;;;;4913327;29;20490;-72
2024/01/24 05:35:48;;;;;;;37.17;6.07;;;;;;;;;;4924743;29;20050;-72
2024/01/24 05:38:14;;;;;;;34.85;5.53;;;;;;;;;;4932008;29;20058;-72
2024/01/24 05:40:40;;;;;;;35.30;5.60;;;;;;;;;;4931310;29;20067;-72
2024/01/24 05:43:06;;;;;;;32.70;5.78;;;;;;;;;;4931295;29;20429;-72
2024/01/24 05:45:32;;;;;;;34.22;5.90;;;;;;;;;;4931486;29;20055;-72
2024/01/24 05:47:58;;;;;;;29.75;4.88;;;;;;;;;;4932231;29;20058;-72
2024/01/24 05:50:24;;;;;;;34.10;5.75;;;;;;;;;;4915030;29;20043;-72
2024/01/24 05:52:50;;;;;;;36.22;5.18;;;;;;;;;;4894527;29;20554;-72
2024/01/24 05:55:16;;;;;;;42.80;6.93;;;;;;;;;;4900838;29;20134;-72
2024/01/24 05:57:42;;;;;;;31.95;5.97;;;;;;;;;;4912883;29;20039;-73
2024/01/24 06:00:14;;;;;;;29.55;4.85;;;;;;;;;;4878326;29;20040;-73
2024/01/24 06:02:40;;;;;;;37.60;6.30;;;;;;;;;;4895536;29;20379;-73
2024/01/24 06:05:07;;;;;;;33.10;5.93;;;;;;;;;;4896576;29;20047;-73
2024/01/24 06:07:34;;;;;;;35.08;6.20;;;;;;;;;;4903674;29;20048;-73
2024/01/24 06:10:01;;;;;;;34.50;6.35;;;;;;;;;;4894068;29;20142;-73
2024/01/24 06:12:28;;;;;;;38.55;5.82;;;;;;;;;;4898403;29;20104;-73
2024/01/24 06:14:56;;;;;;;28.85;5.38;;;;;;;;;;4893964;29;20126;-73
2024/01/24 06:17:23;;;;;;;35.75;7.00;;;;;;;;;;4878795;29;20145;-73
2024/01/24 06:19:52;;;;;;;49.05;6.68;;;;;;;;;;4903496;29;20127;-73
2024/01/24 06:22:19;;;;;;;33.63;5.97;;;;;;;;;;4878527;29;20127;-72
2024/01/24 06:24:45;;;;;;;35.38;6.65;;;;;;;;;;4928836;29;20143;-72
2024/01/24 06:27:11;;;;;;;34.72;5.88;;;;;;;;;;4910613;29;20041;-72
2024/01/24 06:29:37;;;;;;;45.15;7.20;;;;;;;;;;4894186;29;20510;-72
2024/01/24 06:32:03;;;;;;;33.80;5.88;;;;;;;;;;4905723;29;20487;-72
2024/01/24 06:34:30;;;;;;;39.08;7.30;;;;;;;;;;4912493;29;20079;-72
2024/01/24 06:36:56;;;;;;;34.80;6.85;;;;;;;;;;4912251;29;20040;-72
2024/01/24 06:39:22;;;;;;;45.10;6.53;;;;;;;;;;4905894;29;20119;-72
2024/01/24 06:41:48;;;;;;;51.58;7.75;;;;;;;;;;4893507;29;20578;-72
2024/01/24 06:44:14;;;;;;;38.35;6.28;;;;;;;;;;4906205;29;20075;-72
2024/01/24 06:46:44;;;;;;;41.20;6.30;;;;;;;;;;4911619;29;20047;-72
2024/01/24 06:49:10;;;;;;;36.03;6.97;;;;;;;;;;4900320;29;20048;-72
2024/01/24 06:51:39;;;;;;;41.33;6.72;;;;;;;;;;4912227;29;20134;-72
2024/01/24 06:54:05;;;;;;;34.60;6.88;;;;;;;;;;4912642;29;20036;-72
2024/01/24 06:56:31;;;;;;;38.75;6.93;;;;;;;;;;4896761;29;20473;-72
2024/01/24 06:58:57;;;;;;;37.03;5.63;;;;;;;;;;4896083;29;20333;-73
2024/01/24 07:01:23;;;;;;;34.15;6.78;;;;;;;;;;4911899;29;20430;-73
2024/01/24 07:03:49;;;;;;;42.15;6.97;;;;;;;;;;4902407;29;20044;-73
2024/01/24 07:06:15;;;;;;;40.58;7.13;;;;;;;;;;4893156;29;20040;-73
2024/01/24 07:08:42;;;;;;;39.42;6.97;;;;;;;;;;4909715;29;20477;-73
2024/01/24 07:11:09;;;;;;;35.83;6.75;;;;;;;;;;4910778;29;20075;-73
2024/01/24 07:13:35;;;;;;;50.50;6.60;;;;;;;;;;4897116;29;20407;-73
2024/01/24 07:16:04;;;;;;;45.92;8.10;;;;;;;;;;4907495;29;20054;-73
2024/01/24 07:18:31;;;;;;;47.30;7.55;;;;;;;;;;4899932;29;20058;-73
2024/01/24 07:20:57;;;;;;;31.48;6.28;;;;;;;;;;4897799;29;20106;-73
2024/01/24 07:23:23;;;;;;;41.42;6.60;;;;;;;;;;4907169;29;20051;-73
2024/01/24 07:25:49;;;;;;;43.03;7.72;;;;;;;;;;4929808;29;20035;-73
2024/01/24 07:28:15;;;;;;;43.72;6.82;;;;;;;;;;4888212;29;20123;-73
2024/01/24 07:30:41;;;;;;;42.35;7.43;;;;;;;;;;4906242;29;20127;-71
2024/01/24 07:33:07;;;;;;;50.42;7.40;;;;;;;;;;4935595;29;20084;-71
2024/01/24 07:35:33;;;;;;;48.35;7.00;;;;;;;;;;4947049;29;20047;-70
2024/01/24 07:37:59;;;;;;;43.45;7.25;;;;;;;;;;4928246;29;20644;-70
2024/01/24 07:40:25;;;;;;;44.92;7.40;;;;;;;;;;4928441;29;20059;-70
2024/01/24 07:42:52;;;;;;;43.58;7.28;;;;;;;;;;4935899;29;20043;-70
2024/01/24 07:45:18;;;;;;;46.20;7.95;;;;;;;;;;4905358;29;20044;-70
2024/01/24 07:47:45;;;;;;;41.15;7.45;;;;;;;;;;4918703;29;20052;-70
2024/01/24 07:50:14;;;;;;;44.22;6.15;;;;;;;;;;4917329;29;20072;-70
2024/01/24 07:52:40;;;;;;;46.50;7.40;;;;;;;;;;4916807;29;20140;-69
2024/01/24 07:55:06;;;;;;;42.08;6.82;;;;;;;;;;4951763;29;20450;-69
2024/01/24 07:57:32;;;;;;;46.22;7.63;;;;;;;;;;4935608;29;20050;-70
2024/01/24 07:59:59;;;;;;;48.15;7.07;;;;;;;;;;4934847;29;20035;-70
2024/01/24 08:02:25;;;;;;;31.08;6.20;;;;;;;;;;4935147;29;20102;-70
2024/01/24 08:04:51;;;;;;;42.58;7.60;;;;;;;;;;4938218;29;20036;-69
2024/01/24 08:07:16;;;;;;;38.20;7.95;;;;;;;;;;4918340;29;20039;-69
2024/01/24 08:09:42;;;;;;;46.28;7.60;;;;;;;;;;4953041;29;20039;-71
2024/01/24 08:12:09;;;;;;;43.05;7.35;;;;;;;;;;4915173;29;20397;-70
2024/01/24 08:14:35;;;;;;;47.00;7.43;;;;;;;;;;4927982;29;20473;-70
2024/01/24 08:17:10;;;;;;;33.20;6.68;;;;;;;;;;4935158;29;20035;-70
2024/01/24 08:19:38;;;;;;;46.35;7.93;;;;;;;;;;4925510;29;20055;-72
2024/01/24 08:22:05;;;;;;;43.15;7.25;;;;;;;;;;4906763;29;20107;-72
2024/01/24 08:24:31;;;;;;;41.25;7.63;;;;;;;;;;4893433;29;20067;-71
2024/01/24 08:26:57;;;;;;;47.85;7.30;;;;;;;;;;4902781;29;20056;-70
2024/01/24 08:29:27;;;;;;;44.75;7.00;;;;;;;;;;4916122;29;20052;-69
2024/01/24 08:31:53;;;;;;;47.72;7.30;;;;;;;;;;4916975;29;20042;-70
2024/01/24 08:34:19;;;;;;;41.05;7.15;;;;;;;;;;4916288;29;20054;-70
2024/01/24 08:36:45;;;;;;;45.22;8.32;;;;;;;;;;4915963;29;20052;-70
2024/01/24 08:39:11;;;;;;;49.50;8.85;;;;;;;;;;4916088;29;20355;-69
2024/01/24 08:41:37;;;;;;;46.15;8.52;;;;;;;;;;4916281;29;20059;-70
2024/01/24 08:44:04;;;;;;;51.75;9.10;;;;;;;;;;4915946;29;20047;-69
2024/01/24 08:46:31;;;;;;;47.05;8.82;;;;;;;;;;4916353;29;20039;-70
2024/01/24 08:48:57;;;;;;;51.42;7.47;;;;;;;;;;4934080;29;20044;-69
2024/01/24 08:51:25;;;;;;;48.67;8.50;;;;;;;;;;4931659;29;20036;-69
2024/01/24 08:53:51;;;;;;;42.58;7.82;;;;;;;;;;4924248;29;20082;-69
2024/01/24 08:56:18;;;;;;;42.70;7.78;;;;;;;;;;4914535;29;20055;-69
2024/01/24 08:58:44;;;;;;;50.78;7.55;;;;;;;;;;4948026;29;20145;-69
2024/01/24 09:01:10;;;;;;;49.13;7.78;;;;;;;;;;4951060;29;20062;-69
2024/01/24 09:03:36;;;;;;;42.70;7.40;;;;;;;;;;4925467;29;20046;-69
2024/01/24 09:06:02;;;;;;;50.83;8.10;;;;;;;;;;4927984;29;20047;-69
2024/01/24 09:08:28;;;;;;;43.50;7.68;;;;;;;;;;4915472;29;20678;-69
2024/01/24 09:10:54;;;;;;;44.88;7.97;;;;;;;;;;4923484;29;20043;-69
2024/01/24 09:13:22;;;;;;;40.40;7.20;;;;;;;;;;4898734;29;20052;-69
2024/01/24 09:15:48;;;;;;;43.40;7.35;;;;;;;;;;4923370;29;20425;-70
2024/01/24 09:18:16;;;;;;;39.05;7.07;;;;;;;;;;4926071;29;20071;-71
2024/01/24 09:20:42;;;;;;;44.53;8.38;;;;;;;;;;4907579;29;20565;-71
2024/01/24 09:23:08;;;;;;;42.50;7.65;;;;;;;;;;4929717;29;20448;-70
2024/01/24 09:25:34;;;;;;;42.33;7.88;;;;;;;;;;4916825;29;20123;-70
2024/01/24 09:28:00;;;;;;;51.58;7.70;;;;;;;;;;4914263;29;20244;-70
2024/01/24 09:30:26;;;;;;;51.03;7.68;;;;;;;;;;4926089;29;20043;-71
2024/01/24 09:32:52;;;;;;;36.30;6.72;;;;;;;;;;4933293;29;20089;-71
2024/01/24 09:35:18;;;;;;;41.58;7.22;;;;;;;;;;4932298;29;20082;-71
2024/01/24 09:37:44;;;;;;;50.75;7.78;;;;;;;;;;4932133;29;20047;-70
2024/01/24 09:40:11;;;;;;;35.53;6.28;;;;;;;;;;4914456;29;20036;-71
2024/01/24 09:42:41;;;;;;;33.47;7.32;;;;;;;;;;4927022;29;20405;-71
2024/01/24 09:45:08;;;;;;;46.33;7.05;;;;;;;;;;4933560;29;20042;-71
2024/01/24 09:47:34;;;;;;;40.40;7.68;;;;;;;;;;4919699;29;20039;-71
2024/01/24 09:50:04;;;;;;;44.97;8.38;;;;;;;;;;4922492;29;20043;-71
2024/01/24 09:52:32;;;;;;;37.70;7.13;;;;;;;;;;4933952;29;20053;-71
2024/01/24 09:55:00;;;;;;;35.67;6.90;;;;;;;;;;4933707;29;20035;-71
2024/01/24 09:57:27;;;;;;;40.58;7.30;;;;;;;;;;4919286;29;20130;-71
2024/01/24 09:59:53;;;;;;;38.90;6.78;;;;;;;;;;4933238;29;20046;-71
2024/01/24 10:02:19;;;;;;;41.40;6.72;;;;;;;;;;4933939;29;20528;-72
2024/01/24 10:04:45;;;;;;;37.47;6.55;;;;;;;;;;4922136;29;20078;-71
2024/01/24 10:07:11;;;;;;;42.70;7.15;;;;;;;;;;4931354;29;20547;-71
2024/01/24 10:09:38;;;;;;;41.05;6.47;;;;;;;;;;4914900;29;20063;-71
2024/01/24 10:12:04;;;;;;;42.28;7.40;;;;;;;;;;4935973;29;20035;-70
2024/01/24 10:14:30;;;;;;;37.90;7.05;;;;;;;;;;4933851;29;20070;-71
2024/01/24 10:16:57;;;;;;;39.08;7.05;;;;;;;;;;4932549;29;20050;-71
2024/01/24 10:19:24;;;;;;;38.75;7.07;;;;;;;;;;4932578;29;20426;-71
2024/01/24 10:21:51;;;;;;;48.08;7.43;;;;;;;;;;4928745;29;20130;-71
2024/01/24 10:24:17;;;;;;;38.28;6.72;;;;;;;;;;4933145;29;20485;-71
2024/01/24 10:26:46;;;;;;;22.35;5.35;;;;;;;;;;4925995;29;20399;-71
2024/01/24 10:29:12;;;;;;;35.08;6.10;;;;;;;;;;4910352;29;20046;-71
2024/01/24 10:31:38;;;;;;;34.03;6.97;;;;;;;;;;4949648;29;20047;-71
2024/01/24 10:34:04;;;;;;;40.78;7.20;;;;;;;;;;4933670;29;20053;-71
2024/01/24 10:36:32;;;;;;;37.00;7.07;;;;;;;;;;4932838;29;20039;-71
2024/01/24 10:38:59;;;;;;;32.25;6.15;;;;;;;;;;4944883;29;20035;-71
2024/01/24 10:41:29;;;;;;;35.10;6.50;;;;;;;;;;4925244;29;20174;-71
2024/01/24 10:43:57;;;;;;;35.47;6.40;;;;;;;;;;4916294;29;20039;-71
2024/01/24 10:46:23;;;;;;;37.60;6.22;;;;;;;;;;4934264;29;20175;-71
2024/01/24 10:48:50;;;;;;;34.83;5.53;;;;;;;;;;4927688;29;20599;-71
2024/01/24 10:51:18;;;;;;;35.60;6.43;;;;;;;;;;4934397;29;20043;-71
2024/01/24 10:53:45;;;;;;;30.85;5.25;;;;;;;;;;4923367;29;20083;-71
2024/01/24 10:56:14;;;;;;;35.60;5.78;;;;;;;;;;4936737;29;20161;-71
2024/01/24 10:58:42;;;;;;;26.70;5.55;;;;;;;;;;4936703;29;20450;-71
2024/01/24 11:01:08;;;;;;;27.58;5.47;;;;;;;;;;4924559;29;20537;-71
2024/01/24 11:03:34;;;;;;;38.22;5.93;;;;;;;;;;4936507;29;20039;-70
2024/01/24 11:06:02;;;;;;;22.45;4.55;;;;;;;;;;4930835;29;20040;-70
2024/01/24 11:08:32;;;;;;;37.25;5.78;;;;;;;;;;4924662;29;20047;-70
2024/01/24 11:10:59;;;;;;;30.27;5.40;;;;;;;;;;4953945;29;20039;-70
2024/01/24 11:13:25;;;;;;;31.52;5.20;;;;;;;;;;4931688;29;20047;-70
2024/01/24 11:15:57;;;;;;;29.58;4.57;;;;;;;;;;4934959;29;20043;-70
2024/01/24 11:18:25;;;;;;;32.50;4.90;;;;;;;;;;4943431;29;20043;-71
2024/01/24 11:20:54;;;;;;;34.33;5.32;;;;;;;;;;4937223;29;20062;-71
2024/01/24 11:23:35;;;;;;;22.55;4.35;;;;;;;;;;4948294;29;20477;-70
2024/01/24 11:26:02;;;;;;;27.27;4.82;;;;;;;;;;4916731;29;20046;-71
2024/01/24 11:28:28;;;;;;;33.42;5.00;;;;;;;;;;4923737;29;20043;-71
2024/01/24 11:30:54;;;;;;;26.90;4.85;;;;;;;;;;4953648;29;20051;-71
2024/01/24 11:33:20;;;;;;;28.65;4.72;;;;;;;;;;4923556;29;20051;-71
2024/01/24 11:35:47;;;;;;;21.65;4.88;;;;;;;;;;4953086;29;20047;-71
2024/01/24 11:38:22;;;;;;;28.02;4.70;;;;;;;;;;4922843;29;20054;-71
2024/01/24 11:40:51;;;;;;;29.38;5.28;;;;;;;;;;4914608;29;20711;-71
2024/01/24 11:43:26;;;;;;;33.50;5.22;;;;;;;;;;4935204;29;20047;-71
2024/01/24 11:45:56;;;;;;;25.13;4.90;;;;;;;;;;4934711;29;20040;-71
2024/01/24 11:48:23;;;;;;;26.25;4.28;;;;;;;;;;4913378;29;20055;-71
2024/01/24 11:50:54;;;;;;;27.67;4.85;;;;;;;;;;4927225;29;20050;-71
2024/01/24 11:53:20;;;;;;;28.45;4.50;;;;;;;;;;4936010;29;20050;-71
2024/01/24 11:55:52;;;;;;;27.42;4.65;;;;;;;;;;4935835;29;20043;-71
2024/01/24 11:58:18;;;;;;;27.45;4.57;;;;;;;;;;4941197;29;20051;-71
2024/01/24 12:00:45;;;;;;;24.88;4.88;;;;;;;;;;4953318;29;20153;-71
2024/01/24 12:03:15;;;;;;;27.42;4.88;;;;;;;;;;4936284;29;20135;-71
2024/01/24 12:05:41;;;;;;;27.13;4.30;;;;;;;;;;4935776;29;20047;-71
2024/01/24 12:08:08;;;;;;;35.47;6.40;;;;;;;;;;4933313;29;20062;-71
2024/01/24 12:10:37;;;;;;;29.65;4.82;;;;;;;;;;4900786;29;20539;-70
2024/01/24 12:13:03;;;;;;;26.80;4.78;;;;;;;;;;4937502;29;20145;-71
2024/01/24 12:15:29;;;;;;;29.63;5.90;;;;;;;;;;4935330;29;20528;-71
2024/01/24 12:18:02;;;;;;;32.22;5.60;;;;;;;;;;4953221;29;20043;-71
2024/01/24 12:20:28;;;;;;;29.55;5.32;;;;;;;;;;4925882;29;20052;-70
2024/01/24 12:22:54;;;;;;;30.98;5.05;;;;;;;;;;4908266;29;20044;-70
2024/01/24 12:25:20;;;;;;;25.33;4.72;;;;;;;;;;4904980;29;20040;-70
2024/01/24 12:27:46;;;;;;;33.40;5.45;;;;;;;;;;4922586;29;20091;-71
2024/01/24 12:30:15;;;;;;;29.67;4.97;;;;;;;;;;4934270;29;20481;-71
2024/01/24 12:32:45;;;;;;;32.95;4.85;;;;;;;;;;4920284;29;20051;-71
2024/01/24 12:35:14;;;;;;;28.52;4.47;;;;;;;;;;4935489;29;20043;-71
2024/01/24 12:37:41;;;;;;;28.63;4.68;;;;;;;;;;4909789;29;20044;-71
2024/01/24 12:40:09;;;;;;;24.80;5.18;;;;;;;;;;4903930;29;20056;-71
2024/01/24 12:42:35;;;;;;;32.65;5.03;;;;;;;;;;4935326;29;20073;-71
2024/01/24 12:45:01;;;;;;;26.92;4.88;;;;;;;;;;4927023;29;20044;-71
2024/01/24 12:47:28;;;;;;;27.13;5.55;;;;;;;;;;4929927;29;20688;-71
2024/01/24 12:49:54;;;;;;;37.22;5.22;;;;;;;;;;4919803;29;20509;-71
2024/01/24 12:52:20;;;;;;;32.35;4.90;;;;;;;;;;4930888;29;20040;-71
2024/01/24 12:54:46;;;;;;;30.70;6.25;;;;;;;;;;4923518;29;20050;-71
2024/01/24 12:57:12;;;;;;;31.20;5.10;;;;;;;;;;4923898;29;20040;-71
2024/01/24 12:59:38;;;;;;;34.00;5.40;;;;;;;;;;4913544;29;20039;-71
2024/01/24 13:02:05;;;;;;;26.80;5.50;;;;;;;;;;4950506;29;20047;-71
2024/01/24 13:04:31;;;;;;;33.45;5.22;;;;;;;;;;4934616;29;20082;-71
2024/01/24 13:06:57;;;;;;;26.38;5.10;;;;;;;;;;4934686;29;20083;-71
2024/01/24 13:09:23;;;;;;;23.90;4.85;;;;;;;;;;4933930;29;20106;-71
2024/01/24 13:11:49;;;;;;;28.50;4.90;;;;;;;;;;4928180;29;20036;-71
2024/01/24 13:14:15;;;;;;;31.63;4.85;;;;;;;;;;4906056;29;20043;-71
2024/01/24 13:16:41;;;;;;;29.50;5.38;;;;;;;;;;4929556;29;20055;-70
2024/01/24 13:19:07;;;;;;;26.77;4.70;;;;;;;;;;4943230;29;20399;-70
2024/01/24 13:21:33;;;;;;;32.63;5.97;;;;;;;;;;4909923;29;20048;-70
2024/01/24 13:24:01;;;;;;;24.27;5.47;;;;;;;;;;4930974;29;20074;-70
2024/01/24 13:26:28;;;;;;;34.38;5.55;;;;;;;;;;4916133;29;20047;-70
2024/01/24 13:28:54;;;;;;;29.35;5.00;;;;;;;;;;4928084;29;20086;-70
2024/01/24 13:31:20;;;;;;;26.65;5.53;;;;;;;;;;4927222;29;20658;-70
2024/01/24 13:33:48;;;;;;;27.48;4.85;;;;;;;;;;4921241;29;20151;-70
2024/01/24 13:36:16;;;;;;;32.63;5.55;;;;;;;;;;4914602;29;20051;-71
2024/01/24 13:38:42;;;;;;;29.45;5.25;;;;;;;;;;4922915;29;20672;-70
2024/01/24 13:41:08;;;;;;;25.92;5.35;;;;;;;;;;4906519;29;20070;-70
2024/01/24 13:43:34;;;;;;;24.42;4.45;;;;;;;;;;4940278;29;20039;-70
2024/01/24 13:46:00;;;;;;;35.85;5.68;;;;;;;;;;4920332;29;20044;-70
2024/01/24 13:48:26;;;;;;;33.10;6.20;;;;;;;;;;4917144;29;20661;-70
2024/01/24 13:50:52;;;;;;;26.17;5.43;;;;;;;;;;4920872;29;20467;-70
2024/01/24 13:53:18;;;;;;;34.10;5.78;;;;;;;;;;4949975;29;20406;-70
2024/01/24 13:55:44;;;;;;;33.00;5.80;;;;;;;;;;4949616;29;20050;-70
2024/01/24 13:58:10;;;;;;;33.90;5.82;;;;;;;;;;4915819;29;20074;-69
2024/01/24 14:00:36;;;;;;;28.08;5.68;;;;;;;;;;4918361;29;20379;-70
2024/01/24 14:03:02;;;;;;;31.20;5.88;;;;;;;;;;4897584;29;20051;-70
2024/01/24 14:05:36;;;;;;;26.50;5.13;;;;;;;;;;4923688;29;20044;-70
2024/01/24 14:08:03;;;;;;;38.40;5.70;;;;;;;;;;4931029;29;20035;-71
2024/01/24 14:10:29;;;;;;;34.33;5.28;;;;;;;;;;4899720;29;20048;-71
2024/01/24 14:12:55;;;;;;;30.38;5.43;;;;;;;;;;4904723;29;20047;-71
2024/01/24 14:15:21;;;;;;;27.98;5.65;;;;;;;;;;4899055;29;20499;-70
2024/01/24 14:17:47;;;;;;;33.70;5.25;;;;;;;;;;4926638;29;20047;-70
2024/01/24 14:20:13;;;;;;;32.65;5.60;;;;;;;;;;4930594;29;20054;-70
2024/01/24 14:22:39;;;;;;;30.45;5.43;;;;;;;;;;4922462;29;20043;-70
2024/01/24 14:25:05;;;;;;;26.40;5.20;;;;;;;;;;4926959;29;20043;-70
2024/01/24 14:27:31;;;;;;;32.25;5.70;;;;;;;;;;4919780;29;20090;-70
2024/01/24 14:29:57;;;;;;;29.70;6.00;;;;;;;;;;4920823;29;20454;-70